Kongen — LCDE — position and weather

sailwx.info

Track history (hours):
 
Tides and Currents Weather Stations Pressure Air Temp Water Temp Dewpoint Dewpoint Depression Visibility Wind Speed Wind Dir Waves Ship Positions

Kongen

Last reported at 2016-Sep-23 15:33 UTC. Time now 2016-Sep-25 17:24 UTC.
Position N 59°52' E 010°40'.

Length 50 m; draft 3.2 m.

Type: Passenger vessel. MMSI: 258509000.

Date/timePositionNaut miles runAvg speedWind from/ knotsBaromVisibWave heightAir tempDewpointWater temp
2016-Sep-23 15:33N 59°52' E 010°40'0 0.1
2016-Sep-23 13:33N 59°53' E 010°40'2 0.4
2016-Sep-23 09:14N 59°54' E 010°42'0 0.2
2016-Sep-23 06:31N 59°54' E 010°41'1 0.0
2016-Sep-22 12:15N 59°54' E 010°43'1 0.1
2016-Sep-22 04:10N 59°53' E 010°41'1 2.3
2016-Sep-22 03:31N 59°52' E 010°39'0 0.0
2016-Sep-22 00:31N 59°52' E 010°39'0 0.0
2016-Sep-21 23:31N 59°52' E 010°39'0 0.0
2016-Sep-21 22:31N 59°52' E 010°39'0 0.0
2016-Sep-21 19:31N 59°52' E 010°39'0 0.0
2016-Sep-21 16:31N 59°52' E 010°39'1 0.1
2016-Sep-21 09:04N 59°53' E 010°40'1 1.1
2016-Sep-21 08:11N 59°54' E 010°41'0 0.0
2016-Sep-21 05:30N 59°54' E 010°41'0 0.0
2016-Sep-20 17:09N 59°53' E 010°41'0 0.1
2016-Sep-20 14:10N 59°54' E 010°41'0 0.1
2016-Sep-20 13:10N 59°54' E 010°41'0 0.0
2016-Sep-20 07:10N 59°54' E 010°41'2 0.3
2016-Sep-20 02:31N 59°52' E 010°39'0 0.0
2016-Sep-19 23:31N 59°52' E 010°39'0 0.0
2016-Sep-19 19:31N 59°52' E 010°39'0 0.0
2016-Sep-19 18:31N 59°52' E 010°39'0 0.0
2016-Sep-19 16:28N 59°52' E 010°39'0 0.1
2016-Sep-19 14:33N 59°52' E 010°40'0 0.1
2016-Sep-19 13:33N 59°52' E 010°40'1 0.3
2016-Sep-19 09:10N 59°54' E 010°41'0 0.0
2016-Sep-19 06:30N 59°53' E 010°41'0 0.0
2016-Sep-18 14:11N 59°54' E 010°41'0 0.0
2016-Sep-18 10:09N 59°53' E 010°41'0 0.0
2016-Sep-18 09:10N 59°53' E 010°41'0 0.0
2016-Sep-17 13:09N 59°53' E 010°41'0 0.2
2016-Sep-17 12:10N 59°53' E 010°41'0 0.1
2016-Sep-17 10:11N 59°53' E 010°41'2 2.4
2016-Sep-17 09:25N 59°55' E 010°44'1 1.2
2016-Sep-17 08:12N 59°54' E 010°42'0 0.1
2016-Sep-17 07:11N 59°54' E 010°41'0 0.1
2016-Sep-17 05:10N 59°54' E 010°41'0 0.0
2016-Sep-16 17:12N 59°54' E 010°41'0 0.1
2016-Sep-16 15:11N 59°54' E 010°41'0 0.0
2016-Sep-16 12:10N 59°53' E 010°41'0 0.0
2016-Sep-16 07:10N 59°54' E 010°41'2 0.4
2016-Sep-16 03:32N 59°52' E 010°39'0 0.0
2016-Sep-16 02:32N 59°52' E 010°39'0 0.0
2016-Sep-16 00:29N 59°52' E 010°39'0 0.0
2016-Sep-15 22:32N 59°52' E 010°39'0 0.0
2016-Sep-15 21:32N 59°52' E 010°39'0 0.0
2016-Sep-15 20:32N 59°52' E 010°39'0 0.0
2016-Sep-15 18:29N 59°52' E 010°39'2 0.1
2016-Sep-14 17:13N 59°54' E 010°42'0 0.5
2016-Sep-14 16:11N 59°54' E 010°41'0 0.0
2016-Sep-14 13:10N 59°54' E 010°41'0 0.0
2016-Sep-14 12:11N 59°54' E 010°41'2 0.4
2016-Sep-14 07:33N 59°55' E 010°44'1 1.0
2016-Sep-14 06:13N 59°54' E 010°42'2 0.7
2016-Sep-14 03:32N 59°52' E 010°39'0 0.0
2016-Sep-13 22:32N 59°52' E 010°39'0 0.0
2016-Sep-13 20:32N 59°52' E 010°39'0 0.0
2016-Sep-13 18:32N 59°52' E 010°39'0 0.0
2016-Sep-13 17:32N 59°52' E 010°39'0 0.0
2016-Sep-13 16:32N 59°52' E 010°39'  
Track history (hours):
 
Tides and Currents Weather Stations Pressure Air Temp Water Temp Dewpoint Dewpoint Depression Visibility Wind Speed Wind Dir Waves Ship Positions

Kongen

Last reported at 2016-Sep-23 15:33 UTC. Time now 2016-Sep-25 17:24 UTC.
Position N 59°52' E 010°40'.

Length 50 m; draft 3.2 m.

Type: Passenger vessel. MMSI: 258509000.

Date/timePositionNaut miles runAvg speedWind from/ knotsBaromVisibWave heightAir tempDewpointWater temp
2016-Sep-23 15:33N 59°52' E 010°40'0 0.1
2016-Sep-23 13:33N 59°53' E 010°40'2 0.4
2016-Sep-23 09:14N 59°54' E 010°42'0 0.2
2016-Sep-23 06:31N 59°54' E 010°41'1 0.0
2016-Sep-22 12:15N 59°54' E 010°43'1 0.1
2016-Sep-22 04:10N 59°53' E 010°41'1 2.3
2016-Sep-22 03:31N 59°52' E 010°39'0 0.0
2016-Sep-22 00:31N 59°52' E 010°39'0 0.0
2016-Sep-21 23:31N 59°52' E 010°39'0 0.0
2016-Sep-21 22:31N 59°52' E 010°39'0 0.0
2016-Sep-21 19:31N 59°52' E 010°39'0 0.0
2016-Sep-21 16:31N 59°52' E 010°39'1 0.1
2016-Sep-21 09:04N 59°53' E 010°40'1 1.1
2016-Sep-21 08:11N 59°54' E 010°41'0 0.0
2016-Sep-21 05:30N 59°54' E 010°41'0 0.0
2016-Sep-20 17:09N 59°53' E 010°41'0 0.1
2016-Sep-20 14:10N 59°54' E 010°41'0 0.1
2016-Sep-20 13:10N 59°54' E 010°41'0 0.0
2016-Sep-20 07:10N 59°54' E 010°41'2 0.3
2016-Sep-20 02:31N 59°52' E 010°39'0 0.0
2016-Sep-19 23:31N 59°52' E 010°39'0 0.0
2016-Sep-19 19:31N 59°52' E 010°39'0 0.0
2016-Sep-19 18:31N 59°52' E 010°39'0 0.0
2016-Sep-19 16:28N 59°52' E 010°39'0 0.1
2016-Sep-19 14:33N 59°52' E 010°40'0 0.1
2016-Sep-19 13:33N 59°52' E 010°40'1 0.3
2016-Sep-19 09:10N 59°54' E 010°41'0 0.0
2016-Sep-19 06:30N 59°53' E 010°41'0 0.0
2016-Sep-18 14:11N 59°54' E 010°41'0 0.0
2016-Sep-18 10:09N 59°53' E 010°41'0 0.0
2016-Sep-18 09:10N 59°53' E 010°41'0 0.0
2016-Sep-17 13:09N 59°53' E 010°41'0 0.2
2016-Sep-17 12:10N 59°53' E 010°41'0 0.1
2016-Sep-17 10:11N 59°53' E 010°41'2 2.4
2016-Sep-17 09:25N 59°55' E 010°44'1 1.2
2016-Sep-17 08:12N 59°54' E 010°42'0 0.1
2016-Sep-17 07:11N 59°54' E 010°41'0 0.1
2016-Sep-17 05:10N 59°54' E 010°41'0 0.0
2016-Sep-16 17:12N 59°54' E 010°41'0 0.1
2016-Sep-16 15:11N 59°54' E 010°41'0 0.0
2016-Sep-16 12:10N 59°53' E 010°41'0 0.0
2016-Sep-16 07:10N 59°54' E 010°41'2 0.4
2016-Sep-16 03:32N 59°52' E 010°39'0 0.0
2016-Sep-16 02:32N 59°52' E 010°39'0 0.0
2016-Sep-16 00:29N 59°52' E 010°39'0 0.0
2016-Sep-15 22:32N 59°52' E 010°39'0 0.0
2016-Sep-15 21:32N 59°52' E 010°39'0 0.0
2016-Sep-15 20:32N 59°52' E 010°39'0 0.0
2016-Sep-15 18:29N 59°52' E 010°39'2 0.1
2016-Sep-14 17:13N 59°54' E 010°42'0 0.5
2016-Sep-14 16:11N 59°54' E 010°41'0 0.0
2016-Sep-14 13:10N 59°54' E 010°41'0 0.0
2016-Sep-14 12:11N 59°54' E 010°41'2 0.4
2016-Sep-14 07:33N 59°55' E 010°44'1 1.0
2016-Sep-14 06:13N 59°54' E 010°42'2 0.7
2016-Sep-14 03:32N 59°52' E 010°39'0 0.0
2016-Sep-13 22:32N 59°52' E 010°39'0 0.0
2016-Sep-13 20:32N 59°52' E 010°39'0 0.0
2016-Sep-13 18:32N 59°52' E 010°39'0 0.0
2016-Sep-13 17:32N 59°52' E 010°39'0 0.0
2016-Sep-13 16:32N 59°52' E 010°39'  

Dump ship's entire track history